Time;durP1;ratioP1;P1;durP2;ratioP2;P2;SDS_P1;SDS_P2;PMS_P1;PMS_P2;Temp;Humidity;BMP_temperature;BMP_pressure;BME280_temperature;BME280_humidity;BME280_pressure;Samples;Min_cycle;Max_cycle;Signal;HPM_P1;HPM_P2
2023/04/14 00:00:36;;;;;;;12.50;7.80;;;6.00;99.90;;;;;;4441311;28;10001157;-70
2023/04/14 00:03:02;;;;;;;12.05;7.75;;;5.80;99.90;;;;;;5014424;28;20246;-71
2023/04/14 00:05:31;;;;;;;11.45;7.88;;;5.70;99.90;;;;;;5010972;28;20034;-70
2023/04/14 00:07:57;;;;;;;13.27;8.07;;;5.70;99.90;;;;;;5010226;28;20423;-70
2023/04/14 00:10:23;;;;;;;11.20;8.38;;;5.60;99.90;;;;;;5016006;28;20468;-70
2023/04/14 00:12:49;;;;;;;11.10;8.68;;;5.60;99.90;;;;;;5014721;28;20501;-71
2023/04/14 00:15:15;;;;;;;9.90;7.85;;;5.60;99.90;;;;;;5022841;28;20038;-70
2023/04/14 00:17:40;;;;;;;9.27;7.65;;;5.60;99.90;;;;;;5009031;28;20026;-71
2023/04/14 00:20:07;;;;;;;10.13;7.85;;;5.50;99.90;;;;;;5008083;28;20151;-70
2023/04/14 00:22:33;;;;;;;11.23;7.95;;;5.50;99.90;;;;;;5018622;28;20036;-70
2023/04/14 00:24:58;;;;;;;11.25;8.45;;;5.60;99.90;;;;;;5008364;28;20029;-70
2023/04/14 00:27:24;;;;;;;11.20;8.38;;;5.60;99.90;;;;;;5009534;28;20211;-70
2023/04/14 00:29:50;;;;;;;10.00;7.55;;;5.70;99.90;;;;;;5010888;28;20048;-70
2023/04/14 00:32:16;;;;;;;9.75;7.85;;;5.70;99.90;;;;;;5029966;28;20386;-70
2023/04/14 00:34:41;;;;;;;12.27;7.65;;;5.80;99.90;;;;;;5015931;28;20029;-70
2023/04/14 00:37:07;;;;;;;11.05;7.63;;;5.80;99.90;;;;;;5017834;28;20060;-70
2023/04/14 00:39:32;;;;;;;11.73;8.18;;;5.80;99.90;;;;;;5012666;28;20108;-71
2023/04/14 00:42:01;;;;;;;9.80;8.10;;;5.80;99.90;;;;;;5016854;28;20056;-70
2023/04/14 00:44:26;;;;;;;11.45;8.30;;;5.70;99.90;;;;;;5017193;28;20064;-70
2023/04/14 00:46:52;;;;;;;11.25;7.88;;;5.80;99.90;;;;;;5021639;28;20058;-71
2023/04/14 00:49:18;;;;;;;13.63;8.90;;;5.70;99.90;;;;;;5018707;28;20092;-71
2023/04/14 00:51:45;;;;;;;14.98;9.80;;;5.70;99.90;;;;;;5018368;28;20044;-71
2023/04/14 00:54:12;;;;;;;11.88;9.20;;;5.70;99.90;;;;;;5024907;28;20560;-70
2023/04/14 00:56:38;;;;;;;12.77;8.55;;;5.70;99.90;;;;;;5022514;28;20363;-70
2023/04/14 00:59:06;;;;;;;11.75;9.50;;;5.70;99.90;;;;;;5010989;28;20133;-70
2023/04/14 01:01:36;;;;;;;13.73;9.80;;;5.60;99.90;;;;;;5021475;28;20451;-70
2023/04/14 01:04:02;;;;;;;14.73;9.65;;;5.60;99.90;;;;;;5018724;28;20029;-71
2023/04/14 01:06:28;;;;;;;12.13;8.50;;;5.60;99.90;;;;;;5018839;28;20048;-71
2023/04/14 01:08:55;;;;;;;12.55;9.45;;;5.70;99.90;;;;;;5019374;28;20112;-71
2023/04/14 01:11:30;;;;;;;14.18;10.93;;;5.70;99.90;;;;;;5013102;28;20048;-70
2023/04/14 01:14:33;;;;;;;13.55;9.98;;;5.70;99.90;;;;;;5013107;28;20026;-71
2023/04/14 01:17:20;;;;;;;14.13;9.68;;;5.60;99.90;;;;;;5018757;28;20032;-71
2023/04/14 01:19:58;;;;;;;12.15;9.75;;;5.60;99.90;;;;;;5013651;28;20030;-71
2023/04/14 01:22:29;;;;;;;12.10;9.73;;;5.60;99.90;;;;;;5012863;28;20034;-70
2023/04/14 01:25:30;;;;;;;15.32;10.65;;;5.60;99.90;;;;;;5015422;28;20030;-70
2023/04/14 01:28:02;;;;;;;12.80;9.40;;;5.70;99.90;;;;;;5015567;28;20091;-70
2023/04/14 01:30:42;;;;;;;13.73;9.15;;;5.80;99.90;;;;;;5025452;28;20122;-70
2023/04/14 01:33:14;;;;;;;10.32;8.00;;;5.90;99.90;;;;;;5018257;28;20490;-70
2023/04/14 01:35:47;;;;;;;11.40;8.85;;;5.90;99.90;;;;;;5016693;28;20056;-70
2023/04/14 01:38:24;;;;;;;11.13;8.73;;;5.90;99.90;;;;;;5011872;28;20037;-71
2023/04/14 01:40:51;;;;;;;10.77;8.40;;;5.80;99.90;;;;;;5013712;28;20056;-70
2023/04/14 01:43:23;;;;;;;12.07;9.55;;;5.80;99.90;;;;;;5021389;28;20025;-71
2023/04/14 01:45:51;;;;;;;15.00;10.27;;;5.70;99.90;;;;;;5020165;28;20057;-70
2023/04/14 01:48:17;;;;;;;13.15;10.15;;;5.70;99.90;;;;;;5012644;28;20495;-70
2023/04/14 01:50:44;;;;;;;13.98;9.77;;;5.60;99.90;;;;;;5011688;28;20394;-70
2023/04/14 01:53:12;;;;;;;13.52;10.50;;;5.60;99.90;;;;;;5016392;28;20362;-70
2023/04/14 01:55:39;;;;;;;13.75;9.52;;;5.60;99.90;;;;;;5013930;28;20053;-70
2023/04/14 01:58:06;;;;;;;11.32;9.00;;;5.50;99.90;;;;;;5020602;28;20018;-70
2023/04/14 02:00:34;;;;;;;13.90;9.25;;;5.50;99.90;;;;;;5025847;28;20032;-70
2023/04/14 02:03:02;;;;;;;13.75;9.77;;;5.50;99.90;;;;;;5011637;28;20064;-70
2023/04/14 02:05:30;;;;;;;15.95;10.85;;;5.50;99.90;;;;;;5012000;28;20029;-70
2023/04/14 02:07:58;;;;;;;14.15;10.27;;;5.50;99.90;;;;;;5012774;28;20053;-70
2023/04/14 02:10:25;;;;;;;15.95;11.05;;;5.50;99.90;;;;;;5021944;28;20029;-70
2023/04/14 02:12:55;;;;;;;15.80;10.35;;;5.60;99.90;;;;;;5025127;28;20045;-70
2023/04/14 02:15:22;;;;;;;14.80;10.90;;;5.70;99.90;;;;;;5017410;28;20061;-70
2023/04/14 02:17:49;;;;;;;13.48;10.20;;;5.70;99.90;;;;;;5020459;28;20080;-70
2023/04/14 02:20:15;;;;;;;12.85;9.63;;;5.60;99.90;;;;;;5017415;28;20114;-70
2023/04/14 02:22:41;;;;;;;13.18;9.40;;;5.60;99.90;;;;;;5026004;28;20053;-70
2023/04/14 02:25:08;;;;;;;11.57;8.63;;;5.50;99.90;;;;;;4972901;28;1095661;-70
2023/04/14 02:27:47;;;;;;;11.60;8.82;;;5.40;99.90;;;;;;5022668;28;20118;-70
2023/04/14 02:30:18;;;;;;;12.60;8.75;;;5.40;99.90;;;;;;5015077;28;20030;-70
2023/04/14 02:32:48;;;;;;;11.10;8.25;;;5.30;99.90;;;;;;5016506;28;22319;-70
2023/04/14 02:35:17;;;;;;;10.80;8.18;;;5.20;99.90;;;;;;5021912;28;20044;-70
2023/04/14 02:37:50;;;;;;;11.30;8.02;;;5.20;99.90;;;;;;5024665;28;20025;-70
2023/04/14 02:40:28;;;;;;;11.50;7.80;;;5.20;99.90;;;;;;5017588;28;20422;-70
2023/04/14 02:43:00;;;;;;;9.13;7.38;;;5.10;99.90;;;;;;5018702;28;20032;-71
2023/04/14 02:45:29;;;;;;;9.90;7.88;;;5.10;99.90;;;;;;5015772;28;20022;-70
2023/04/14 02:48:00;;;;;;;13.93;9.82;;;5.00;99.90;;;;;;5010786;28;20041;-70
2023/04/14 02:50:27;;;;;;;11.52;8.65;;;5.00;99.90;;;;;;5022913;28;20030;-70
2023/04/14 02:52:54;;;;;;;11.70;8.88;;;4.90;99.90;;;;;;5012807;28;20116;-70
2023/04/14 02:55:21;;;;;;;15.85;11.52;;;4.90;99.90;;;;;;5020920;28;20069;-70
2023/04/14 02:57:48;;;;;;;16.30;11.43;;;4.80;99.90;;;;;;5024147;28;20105;-70
2023/04/14 03:00:15;;;;;;;14.82;10.90;;;4.80;99.90;;;;;;5011267;28;20104;-70
2023/04/14 03:02:43;;;;;;;14.77;11.15;;;4.80;99.90;;;;;;5010697;28;20037;-70
2023/04/14 03:05:10;;;;;;;14.45;10.50;;;4.80;99.90;;;;;;5018695;28;20044;-70
2023/04/14 03:07:37;;;;;;;14.77;10.98;;;4.70;99.90;;;;;;5024436;28;20053;-70
2023/04/14 03:10:03;;;;;;;12.98;9.60;;;4.70;99.90;;;;;;5028078;28;20044;-70
2023/04/14 03:12:31;;;;;;;14.65;10.38;;;4.70;99.90;;;;;;5015073;28;20035;-70
2023/04/14 03:14:58;;;;;;;12.73;9.82;;;4.60;99.90;;;;;;5017265;28;20033;-70
2023/04/14 03:17:24;;;;;;;15.55;10.50;;;4.50;99.90;;;;;;5011160;28;20034;-70
2023/04/14 03:19:51;;;;;;;14.75;10.75;;;4.50;99.90;;;;;;5021949;28;20029;-70
2023/04/14 03:22:19;;;;;;;13.20;10.07;;;4.30;99.90;;;;;;5017527;28;20427;-70
2023/04/14 03:24:45;;;;;;;14.18;9.77;;;4.40;99.90;;;;;;5015370;28;20026;-70
2023/04/14 03:27:17;;;;;;;12.55;9.15;;;4.30;99.90;;;;;;5013593;28;20054;-70
2023/04/14 03:29:50;;;;;;;13.65;8.93;;;4.30;99.90;;;;;;5011136;28;20042;-70
2023/04/14 03:32:17;;;;;;;12.27;8.98;;;4.30;99.90;;;;;;5011836;28;20494;-70
2023/04/14 03:34:47;;;;;;;11.85;8.18;;;4.30;99.90;;;;;;5009309;28;20033;-70
2023/04/14 03:37:16;;;;;;;13.05;8.30;;;4.30;99.90;;;;;;5011483;28;20494;-70
2023/04/14 03:39:44;;;;;;;13.20;9.23;;;4.40;99.90;;;;;;5010232;28;20113;-70
2023/04/14 03:42:11;;;;;;;11.73;8.70;;;4.60;99.90;;;;;;5014358;28;20850;-71
2023/04/14 03:44:38;;;;;;;11.77;7.82;;;4.70;99.90;;;;;;5017108;28;20112;-70
2023/04/14 03:47:06;;;;;;;12.98;7.57;;;4.80;99.90;;;;;;5021138;28;20080;-70
2023/04/14 03:49:36;;;;;;;11.27;7.65;;;4.80;99.90;;;;;;5017728;28;20034;-70
2023/04/14 03:52:09;;;;;;;11.18;7.78;;;4.70;99.90;;;;;;5019441;28;20057;-70
2023/04/14 03:54:37;;;;;;;11.85;7.78;;;4.60;99.90;;;;;;5024961;28;20044;-70
2023/04/14 03:57:06;;;;;;;11.15;7.93;;;4.50;99.90;;;;;;5029151;28;20108;-70
2023/04/14 03:59:32;;;;;;;11.85;7.25;;;4.50;99.90;;;;;;5030005;28;20036;-70
2023/04/14 04:01:59;;;;;;;9.88;7.38;;;4.50;99.90;;;;;;5006071;28;20033;-70
2023/04/14 04:04:25;;;;;;;10.88;7.65;;;4.50;99.90;;;;;;5015495;28;20094;-70
2023/04/14 04:06:52;;;;;;;10.30;7.45;;;4.40;99.90;;;;;;5014567;28;20026;-70
2023/04/14 04:09:20;;;;;;;9.13;6.72;;;4.30;99.90;;;;;;5009366;28;20026;-70
2023/04/14 04:11:47;;;;;;;8.80;6.07;;;;;;;;;;5025253;28;20030;-70
2023/04/14 04:14:14;;;;;;;7.57;5.82;;;;;;;;;;5014617;28;20382;-70
2023/04/14 04:16:42;;;;;;;7.70;6.70;;;;;;;;;;5014802;28;20041;-70
2023/04/14 04:19:08;;;;;;;12.38;6.43;;;;;;;;;;5010064;28;20394;-70
2023/04/14 04:21:36;;;;;;;8.35;6.63;;;;;;;;;;5011790;28;20091;-70
2023/04/14 04:24:02;;;;;;;10.98;8.27;;;;;;;;;;5022875;28;20030;-70
2023/04/14 04:26:29;;;;;;;9.65;7.80;;;;;;;;;;5008889;28;20049;-70
2023/04/14 04:28:59;;;;;;;10.85;8.15;;;;;;;;;;5012012;28;20034;-70
2023/04/14 04:31:26;;;;;;;12.15;8.27;;;;;;;;;;5019558;28;20389;-70
2023/04/14 04:33:53;;;;;;;23.42;12.27;;;;;;;;;;5012365;28;20037;-70
2023/04/14 04:36:19;;;;;;;19.95;11.70;;;;;;;;;;5020231;28;20053;-70
2023/04/14 04:38:45;;;;;;;16.98;12.10;;;;;;;;;;5011767;28;20386;-70
2023/04/14 04:41:21;;;;;;;13.18;10.07;;;;;;;;;;5010753;28;20034;-70
2023/04/14 04:43:47;;;;;;;15.20;10.60;;;;;;;;;;5014628;28;20022;-70
2023/04/14 04:46:32;;;;;;;12.77;9.77;;;;;;;;;;5019281;28;20041;-70
2023/04/14 04:48:58;;;;;;;10.65;8.40;;;;;;;;;;5007930;28;20024;-70
2023/04/14 04:51:25;;;;;;;11.20;9.32;;;;;;;;;;5008391;28;20058;-70
2023/04/14 04:53:51;;;;;;;11.77;8.98;;;;;;;;;;5010394;28;20038;-70
2023/04/14 04:56:17;;;;;;;17.65;9.15;;;;;;;;;;5016840;28;20112;-70
2023/04/14 04:58:43;;;;;;;10.65;8.82;;;;;;;;;;5017976;28;20105;-70
2023/04/14 05:01:09;;;;;;;25.20;8.88;;;;;;;;;;5018348;28;20099;-70
2023/04/14 05:03:36;;;;;;;34.17;9.23;;;;;;;;;;5016621;28;20100;-70
2023/04/14 05:06:02;;;;;;;12.25;8.10;;;;;;;;;;5003779;28;20968;-69
2023/04/14 05:08:28;;;;;;;11.15;9.10;;;;;;;;;;5003509;28;20482;-70
2023/04/14 05:10:54;;;;;;;10.23;8.80;;;;;;;;;;5005042;28;20028;-70
2023/04/14 05:13:21;;;;;;;22.15;10.00;;;;;;;;;;5005882;28;20108;-70
2023/04/14 05:15:47;;;;;;;15.73;10.70;;;;;;;;;;5014752;28;23225;-69
2023/04/14 05:18:13;;;;;;;22.25;11.48;;;;;;;;;;5005804;28;20046;-69
2023/04/14 05:20:39;;;;;;;16.55;11.13;;;;;;;;;;5006452;28;20033;-70
2023/04/14 05:23:05;;;;;;;14.77;11.50;;;;;;;;;;5017856;28;20026;-70
2023/04/14 05:25:31;;;;;;;14.00;10.50;;;;;;;;;;5024665;28;20072;-69
2023/04/14 05:27:57;;;;;;;12.85;10.23;;;;;;;;;;5013583;28;20034;-69
2023/04/14 05:30:23;;;;;;;16.83;10.80;;;;;;;;;;5016808;28;20034;-69
2023/04/14 05:32:50;;;;;;;14.23;10.45;;;;;;;;;;5018123;28;20116;-69
2023/04/14 05:35:16;;;;;;;17.42;9.88;;;;;;;;;;5018382;28;20566;-69
2023/04/14 05:37:42;;;;;;;21.58;9.50;;;;;;;;;;5014635;28;20454;-70
2023/04/14 05:40:08;;;;;;;13.88;10.63;;;;;;;;;;5019653;28;20108;-70
2023/04/14 05:42:34;;;;;;;13.52;10.20;;;;;;;;;;5023041;28;22677;-70
2023/04/14 05:45:00;;;;;;;11.55;9.48;;;;;;;;;;5014884;28;20030;-70
2023/04/14 05:47:27;;;;;;;10.38;7.68;;;;;;;;;;5012906;28;20122;-70
2023/04/14 05:49:53;;;;;;;8.63;6.10;;;;;;;;;;5021371;28;20037;-70
2023/04/14 05:52:19;;;;;;;7.93;6.90;;;;;;;;;;5013474;28;20040;-70
2023/04/14 05:54:45;;;;;;;8.05;6.90;;;;;;;;;;5011786;28;20057;-70
2023/04/14 05:57:11;;;;;;;20.10;6.80;;;;;;;;;;5020803;28;20050;-70
2023/04/14 05:59:37;;;;;;;8.02;6.78;;;;;;;;;;5027081;28;20559;-70
2023/04/14 06:02:05;;;;;;;13.63;6.72;;;4.50;99.90;;;;;;5016933;28;20132;-69
2023/04/14 06:04:32;;;;;;;7.88;6.65;;;4.40;99.90;;;;;;5016393;28;20402;-69
2023/04/14 06:06:58;;;;;;;13.10;8.00;;;4.30;99.90;;;;;;5019732;28;20375;-69
2023/04/14 06:09:23;;;;;;;9.73;7.50;;;4.40;99.90;;;;;;5013987;28;20033;-69
2023/04/14 06:11:49;;;;;;;13.48;8.00;;;4.40;99.90;;;;;;5021597;28;20045;-69
2023/04/14 06:14:14;;;;;;;11.05;6.90;;;4.40;99.90;;;;;;5012034;28;20057;-69
2023/04/14 06:16:40;;;;;;;8.57;6.22;;;4.50;99.90;;;;;;5013965;28;20482;-69
2023/04/14 06:19:06;;;;;;;8.05;6.32;;;4.50;99.90;;;;;;5014709;28;20029;-69
2023/04/14 06:21:31;;;;;;;14.23;6.10;;;4.70;99.90;;;;;;5012323;28;20057;-69
2023/04/14 06:23:57;;;;;;;7.82;5.95;;;4.80;99.90;;;;;;5021691;28;20018;-69
2023/04/14 06:26:22;;;;;;;38.40;6.10;;;4.90;99.90;;;;;;5019168;28;20042;-69
2023/04/14 06:28:48;;;;;;;17.50;5.72;;;4.90;99.90;;;;;;5022404;28;20033;-69
2023/04/14 06:31:14;;;;;;;13.30;5.20;;;4.90;99.90;;;;;;5011316;28;20061;-69
2023/04/14 06:33:39;;;;;;;8.15;5.25;;;4.80;99.90;;;;;;5021268;28;20087;-69
2023/04/14 06:36:05;;;;;;;15.57;5.60;;;4.80;99.90;;;;;;5015130;28;20029;-69
2023/04/14 06:38:31;;;;;;;6.25;5.28;;;4.80;99.90;;;;;;5019568;28;20285;-69
2023/04/14 06:40:56;;;;;;;26.13;5.20;;;4.80;99.90;;;;;;5011184;28;20113;-69
2023/04/14 06:43:22;;;;;;;16.55;5.78;;;;;;;;;;5013250;28;20033;-66
2023/04/14 06:45:49;;;;;;;16.33;5.68;;;4.90;99.90;;;;;;5011798;28;20545;-71
2023/04/14 06:48:15;;;;;;;7.50;5.68;;;5.10;99.90;;;;;;5013573;28;20079;-71
2023/04/14 06:50:41;;;;;;;7.10;5.47;;;5.20;99.90;;;;;;5007631;28;20037;-71
2023/04/14 06:53:08;;;;;;;6.97;5.97;;;5.20;99.90;;;;;;5015501;28;20526;-71
2023/04/14 06:55:40;;;;;;;7.57;6.10;;;5.30;99.90;;;;;;5012186;28;20406;-72
2023/04/14 06:58:06;;;;;;;12.20;5.97;;;5.40;99.90;;;;;;5010185;28;20030;-71
2023/04/14 07:00:31;;;;;;;32.38;9.60;;;5.40;99.90;;;;;;5012339;28;20079;-71
2023/04/14 07:02:57;;;;;;;10.63;8.48;;;5.50;99.90;;;;;;5014218;28;20017;-71
2023/04/14 07:05:23;;;;;;;13.02;6.90;;;5.50;99.90;;;;;;5017288;28;20035;-71
2023/04/14 07:07:48;;;;;;;39.00;7.03;;;5.50;99.90;;;;;;5013125;28;20556;-71
2023/04/14 07:10:14;;;;;;;8.70;6.95;;;5.50;99.90;;;;;;5012815;28;20299;-71
2023/04/14 07:12:39;;;;;;;10.18;6.32;;;5.60;99.90;;;;;;5015646;28;20029;-71
2023/04/14 07:15:06;;;;;;;37.00;6.95;;;5.70;99.90;;;;;;5026003;28;20023;-71
2023/04/14 07:17:35;;;;;;;7.38;6.35;;;5.80;99.90;;;;;;5011901;28;20025;-71
2023/04/14 07:20:02;;;;;;;10.75;6.75;;;5.90;99.90;;;;;;5013007;28;20549;-71
2023/04/14 07:22:28;;;;;;;45.90;6.97;;;6.00;99.90;;;;;;5010252;28;20041;-71
2023/04/14 07:24:54;;;;;;;20.48;7.22;;;6.10;99.90;;;;;;5020072;28;20033;-71
2023/04/14 07:27:19;;;;;;;9.40;6.72;;;6.20;99.90;;;;;;5008991;28;20136;-71
2023/04/14 07:29:45;;;;;;;26.58;7.22;;;6.30;99.90;;;;;;5009175;28;20558;-71
2023/04/14 07:32:12;;;;;;;68.72;7.70;;;6.20;99.90;;;;;;5012407;28;20029;-71
2023/04/14 07:34:40;;;;;;;34.05;6.95;;;6.30;99.90;;;;;;5013403;28;20060;-71
2023/04/14 07:37:06;;;;;;;18.23;6.90;;;6.30;99.90;;;;;;5018102;28;20397;-71
2023/04/14 07:39:31;;;;;;;21.77;7.05;;;;;;;;;;5015507;28;20026;-71
2023/04/14 07:41:57;;;;;;;12.75;7.82;;;;;;;;;;5011282;28;20114;-71
2023/04/14 07:44:23;;;;;;;11.43;7.80;;;6.40;99.90;;;;;;5012912;28;20030;-71
2023/04/14 07:46:49;;;;;;;22.73;8.00;;;6.60;99.90;;;;;;5010973;28;20109;-71
2023/04/14 07:49:15;;;;;;;27.35;6.95;;;6.60;99.90;;;;;;5012570;28;20542;-71
2023/04/14 07:51:40;;;;;;;31.35;6.95;;;6.60;99.90;;;;;;5012290;28;20044;-71
2023/04/14 07:54:06;;;;;;;12.50;7.25;;;6.60;99.90;;;;;;5004128;28;20041;-71
2023/04/14 07:56:31;;;;;;;8.68;6.53;;;6.60;99.90;;;;;;4998114;28;20040;-71
2023/04/14 07:58:57;;;;;;;10.05;6.72;;;6.70;99.90;;;;;;5020059;28;20014;-73
2023/04/14 08:01:22;;;;;;;9.50;6.78;;;6.80;99.90;;;;;;5017078;28;20080;-75
2023/04/14 08:03:48;;;;;;;8.20;6.57;;;6.90;99.90;;;;;;5014283;28;20037;-75
2023/04/14 08:06:15;;;;;;;9.40;6.53;;;7.10;99.90;;;;;;5011997;28;20034;-75
2023/04/14 08:08:41;;;;;;;9.27;6.78;;;7.20;99.90;;;;;;5014335;28;20064;-73
2023/04/14 08:11:07;;;;;;;20.63;7.53;;;7.40;99.90;;;;;;5013254;28;20033;-75
2023/04/14 08:13:33;;;;;;;22.13;7.65;;;7.50;99.90;;;;;;5019538;28;20033;-74
2023/04/14 08:15:58;;;;;;;8.23;6.80;;;7.50;99.90;;;;;;5009831;28;20030;-75
2023/04/14 08:18:24;;;;;;;11.80;7.78;;;7.50;99.90;;;;;;5021912;28;20091;-74
2023/04/14 08:20:50;;;;;;;10.05;7.50;;;7.60;99.90;;;;;;5016407;28;20067;-74
2023/04/14 08:23:15;;;;;;;12.60;6.90;;;7.80;99.90;;;;;;5018917;28;20053;-73
2023/04/14 08:25:41;;;;;;;18.23;7.05;;;7.90;99.90;;;;;;5017545;28;20552;-74
2023/04/14 08:28:07;;;;;;;12.10;7.30;;;8.00;99.90;;;;;;5016410;28;20501;-74
2023/04/14 08:30:32;;;;;;;11.82;7.28;;;8.10;99.90;;;;;;5021160;28;20041;-74
2023/04/14 08:32:58;;;;;;;11.10;7.65;;;8.10;99.90;;;;;;5011682;28;20358;-74
2023/04/14 08:35:24;;;;;;;9.95;7.45;;;8.20;99.90;;;;;;5024621;28;20486;-74
2023/04/14 08:37:49;;;;;;;11.25;7.63;;;8.20;99.90;;;;;;5022070;28;20454;-73
2023/04/14 08:40:16;;;;;;;11.10;7.32;;;8.20;99.90;;;;;;5017516;28;20030;-73
2023/04/14 08:42:42;;;;;;;10.82;6.75;;;8.20;99.90;;;;;;5007959;28;20030;-72
2023/04/14 08:45:08;;;;;;;14.20;7.55;;;8.20;99.90;;;;;;5022999;28;20429;-72
2023/04/14 08:47:35;;;;;;;12.32;7.70;;;8.10;99.90;;;;;;5008634;28;20600;-74
2023/04/14 08:50:06;;;;;;;8.65;7.28;;;8.10;99.90;;;;;;5008750;28;20049;-73
2023/04/14 08:52:35;;;;;;;10.50;7.43;;;8.30;99.90;;;;;;5009585;28;20088;-74
2023/04/14 08:55:01;;;;;;;9.18;7.32;;;8.60;99.90;;;;;;5018905;28;20487;-74
2023/04/14 08:57:30;;;;;;;8.63;7.03;;;8.90;99.90;;;;;;5013581;28;20494;-74
2023/04/14 08:59:56;;;;;;;9.55;7.85;;;9.10;99.90;;;;;;5025638;28;20047;-75
2023/04/14 09:02:22;;;;;;;9.07;7.22;;;9.30;99.90;;;;;;5017037;28;20101;-75
2023/04/14 09:04:48;;;;;;;12.35;7.93;;;;;;;;;;5030993;28;20029;-74
2023/04/14 09:07:15;;;;;;;9.32;6.95;;;9.50;99.90;;;;;;5021611;28;20033;-73
2023/04/14 09:09:42;;;;;;;10.88;7.30;;;9.70;99.90;;;;;;5022821;28;20081;-75
2023/04/14 09:12:08;;;;;;;9.68;7.57;;;9.80;99.90;;;;;;5021323;28;20038;-73
2023/04/14 09:14:36;;;;;;;10.70;7.68;;;9.90;99.90;;;;;;5013625;28;20034;-74
2023/04/14 09:17:01;;;;;;;10.73;7.90;;;10.00;99.90;;;;;;5026025;28;20099;-74
2023/04/14 09:19:28;;;;;;;11.20;7.68;;;10.10;99.90;;;;;;5013728;28;20490;-73
2023/04/14 09:21:54;;;;;;;10.70;7.72;;;10.30;99.90;;;;;;5013115;28;20026;-73
2023/04/14 09:24:28;;;;;;;10.05;8.20;;;10.50;99.90;;;;;;5009331;28;20048;-73
2023/04/14 09:26:53;;;;;;;;;;;10.70;99.90;;;;;;5017604;28;20081;-75
2023/04/14 09:29:19;;;;;;;9.70;7.53;;;10.90;99.90;;;;;;5017415;28;19909;-73
2023/04/14 09:31:46;;;;;;;11.35;7.90;;;11.10;99.90;;;;;;5015417;28;20056;-74
2023/04/14 09:34:19;;;;;;;10.32;7.60;;;11.20;99.90;;;;;;5015413;28;20033;-73
2023/04/14 09:37:04;;;;;;;11.18;8.18;;;11.40;99.90;;;;;;5027539;28;20033;-73
2023/04/14 09:39:33;;;;;;;15.18;9.80;;;11.50;99.90;;;;;;5025764;28;20030;-74
2023/04/14 09:42:00;;;;;;;13.98;9.60;;;11.70;99.90;;;;;;5012289;28;20037;-73
2023/04/14 09:44:26;;;;;;;15.10;9.77;;;11.80;99.90;;;;;;5011047;28;20401;-82
2023/04/14 09:47:06;;;;;;;17.13;9.93;;;12.00;99.90;;;;;;5022411;28;20029;-79
2023/04/14 09:49:32;;;;;;;18.77;10.40;;;12.10;99.90;;;;;;5019215;28;20604;-82
2023/04/14 09:52:08;;;;;;;15.75;8.50;;;12.20;99.90;;;;;;5016843;28;20096;-81
2023/04/14 09:54:34;;;;;;;12.82;8.32;;;12.30;99.90;;;;;;5011763;28;20026;-81
2023/04/14 09:57:00;;;;;;;15.00;6.88;;;12.30;99.90;;;;;;5017777;28;20037;-81
2023/04/14 09:59:37;;;;;;;13.00;5.88;;;12.30;99.90;;;;;;5017318;28;20029;-81
2023/04/14 10:02:05;;;;;;;15.35;6.63;;;12.30;99.90;;;;;;5013167;28;20041;-80
2023/04/14 10:04:31;;;;;;;15.45;6.57;;;12.40;99.90;;;;;;5015895;28;20084;-80
2023/04/14 10:06:57;;;;;;;17.50;6.80;;;12.50;99.90;;;;;;5008856;28;20061;-80
2023/04/14 10:09:26;;;;;;;12.95;6.07;;;12.60;99.90;;;;;;5017933;28;20045;-79
2023/04/14 10:12:09;;;;;;;9.30;4.78;;;12.70;99.90;;;;;;5022533;28;20041;-79
2023/04/14 10:14:35;;;;;;;10.05;5.20;;;12.60;99.90;;;;;;5023322;28;20052;-80
2023/04/14 10:17:01;;;;;;;10.43;5.20;;;12.50;99.90;;;;;;5021970;28;20530;-80
2023/04/14 10:19:28;;;;;;;11.05;4.60;;;12.50;99.90;;;;;;5013650;28;20124;-80
2023/04/14 10:21:54;;;;;;;13.80;5.85;;;12.50;99.90;;;;;;5022762;28;20029;-80
2023/04/14 10:24:20;;;;;;;9.27;4.65;;;12.60;99.90;;;;;;5012182;28;20132;-79
2023/04/14 10:26:48;;;;;;;11.90;5.80;;;12.70;99.90;;;;;;5015415;28;20582;-80
2023/04/14 10:29:15;;;;;;;11.00;4.68;;;12.80;99.90;;;;;;5013548;28;20041;-79
2023/04/14 10:31:46;;;;;;;12.63;5.10;;;13.00;99.90;;;;;;5013865;28;20383;-78
2023/04/14 10:34:13;;;;;;;9.13;3.17;;;13.10;99.90;;;;;;5012033;28;20033;-83
2023/04/14 10:36:40;;;;;;;7.10;2.80;;;13.10;99.90;;;;;;5009931;28;20029;-78
2023/04/14 10:39:07;;;;;;;7.35;2.22;;;12.80;99.90;;;;;;5011589;28;20037;-78
2023/04/14 10:41:49;;;;;;;5.63;1.90;;;12.80;99.90;;;;;;5012602;28;20022;-78
2023/04/14 10:44:32;;;;;;;8.20;2.05;;;12.70;97.00;;;;;;5020323;28;20087;-78
2023/04/14 10:47:00;;;;;;;5.03;2.00;;;12.80;99.70;;;;;;5019255;28;20037;-78
2023/04/14 10:49:39;;;;;;;6.82;2.35;;;12.80;99.90;;;;;;5011643;28;20064;-78
2023/04/14 10:52:26;;;;;;;7.97;2.35;;;12.90;95.70;;;;;;5020091;28;20116;-78
2023/04/14 10:55:08;;;;;;;8.55;3.10;;;13.10;96.50;;;;;;5025069;28;20053;-78
2023/04/14 10:57:42;;;;;;;6.45;3.30;;;13.20;99.00;;;;;;5009026;28;20025;-78
2023/04/14 11:00:30;;;;;;;6.70;2.83;;;13.30;96.10;;;;;;5019460;28;20116;-78
2023/04/14 11:03:03;;;;;;;8.27;2.88;;;13.60;96.70;;;;;;5014702;28;20079;-78
2023/04/14 11:05:33;;;;;;;6.40;2.42;;;13.50;93.50;;;;;;5014315;28;20418;-77
2023/04/14 11:08:00;;;;;;;5.00;2.65;;;13.60;92.30;;;;;;5017022;28;20034;-78
2023/04/14 11:10:29;;;;;;;7.07;2.70;;;13.80;90.50;;;;;;5006812;28;20033;-77
2023/04/14 11:13:02;;;;;;;7.22;2.78;;;14.00;91.70;;;;;;5007023;28;20498;-76
2023/04/14 11:16:04;;;;;;;13.82;2.85;;;13.90;83.10;;;;;;5017778;28;20307;-78
2023/04/14 11:18:31;;;;;;;10.05;3.33;;;13.90;91.80;;;;;;4997907;28;20037;-72
2023/04/14 11:21:06;;;;;;;8.93;3.33;;;13.80;90.20;;;;;;5007127;28;20148;-72
2023/04/14 11:23:33;;;;;;;8.32;3.10;;;13.90;90.50;;;;;;5003624;28;20049;-71
2023/04/14 11:25:59;;;;;;;8.85;3.05;;;14.00;88.80;;;;;;5019137;28;20049;-74
2023/04/14 11:28:29;;;;;;;9.25;3.28;;;14.00;88.20;;;;;;5011813;28;20106;-74
2023/04/14 11:30:57;;;;;;;8.48;3.60;;;14.20;83.30;;;;;;5004722;28;20025;-74
2023/04/14 11:33:26;;;;;;;15.52;3.80;;;;;;;;;;5014102;28;20414;-74
2023/04/14 11:35:53;;;;;;;10.00;4.00;;;14.70;99.90;;;;;;5015793;28;20026;-72
2023/04/14 11:38:19;;;;;;;12.73;4.85;;;15.00;96.60;;;;;;5015922;28;20061;-77
2023/04/14 11:40:49;;;;;;;9.50;3.63;;;15.20;86.00;;;;;;5013655;28;20024;-71
2023/04/14 11:43:14;;;;;;;7.57;3.70;;;15.30;82.70;;;;;;5012499;28;20033;-75
2023/04/14 11:45:47;;;;;;;13.93;4.05;;;15.50;79.80;;;;;;5021366;28;20071;-73
2023/04/14 11:48:15;;;;;;;9.47;3.80;;;15.20;90.00;;;;;;5008530;28;20572;-75
2023/04/14 11:50:43;;;;;;;8.75;4.00;;;;;;;;;;5006668;28;20543;-78
2023/04/14 11:53:10;;;;;;;9.48;4.30;;;;;;;;;;5029410;28;20091;-75
2023/04/14 11:55:37;;;;;;;9.15;3.80;;;;;;;;;;5012501;28;20033;-76
2023/04/14 11:58:03;;;;;;;6.35;3.47;;;;;;;;;;5014720;28;20022;-77
2023/04/14 12:00:29;;;;;;;7.03;3.75;;;;;;;;;;5015016;28;20036;-78
2023/04/14 12:02:56;;;;;;;7.82;3.38;;;;;;;;;;5008761;28;20014;-77
2023/04/14 12:05:29;;;;;;;7.25;3.92;;;16.40;72.60;;;;;;5000376;28;20474;-73
2023/04/14 12:07:59;;;;;;;9.27;4.50;;;;;;;;;;5015247;28;20041;-79
2023/04/14 12:10:26;;;;;;;8.30;4.05;;;;;;;;;;5026969;28;20512;-78
2023/04/14 12:13:05;;;;;;;9.02;3.67;;;16.60;77.70;;;;;;5022440;28;20052;-74
2023/04/14 12:15:31;;;;;;;8.52;4.50;;;;;;;;;;5010819;28;20419;-78
2023/04/14 12:17:58;;;;;;;9.50;3.50;;;;;;;;;;5021592;28;20021;-74
2023/04/14 12:20:25;;;;;;;10.20;4.00;;;15.60;77.60;;;;;;5013296;28;20061;-75
2023/04/14 12:22:50;;;;;;;8.13;3.65;;;15.30;93.70;;;;;;5007915;28;20018;-75
2023/04/14 12:25:16;;;;;;;11.30;3.95;;;14.80;83.10;;;;;;5012564;28;20045;-74
2023/04/14 12:27:42;;;;;;;9.85;4.35;;;14.50;85.80;;;;;;5008769;28;20065;-74
2023/04/14 12:30:23;;;;;;;6.20;3.30;;;14.20;89.10;;;;;;4518054;23;10001809;-73
2023/04/14 12:32:48;;;;;;;9.70;3.65;;;14.00;91.50;;;;;;5055934;22;20025;-71
2023/04/14 12:35:14;;;;;;;9.95;4.20;;;13.80;91.60;;;;;;4688037;28;9999697;-72
2023/04/14 12:45:41;;;;;;;7.80;3.60;;;13.00;97.30;;;;;;5431030;22;20046;-69
2023/04/14 12:48:07;;;;;;;6.75;3.28;;;12.90;97.90;;;;;;4991638;28;20038;-70
2023/04/14 12:50:33;;;;;;;9.20;3.00;;;12.90;97.70;;;;;;5006258;28;20029;-69
2023/04/14 12:53:00;;;;;;;9.43;3.13;;;12.80;94.10;;;;;;4999996;28;20049;-69
2023/04/14 12:55:29;;;;;;;6.25;2.90;;;12.80;93.90;;;;;;5004487;28;20041;-71
2023/04/14 12:57:57;;;;;;;7.85;3.53;;;12.80;94.80;;;;;;5003722;28;20698;-71
2023/04/14 13:00:25;;;;;;;6.40;2.83;;;12.90;94.80;;;;;;4996652;28;20409;-71
2023/04/14 13:02:50;;;;;;;8.88;3.08;;;12.90;93.20;;;;;;4995745;28;20031;-71
2023/04/14 13:05:16;;;;;;;9.20;3.67;;;13.00;93.20;;;;;;5004972;28;20032;-71
2023/04/14 13:07:42;;;;;;;9.15;3.53;;;13.00;93.10;;;;;;5001249;28;20057;-71
2023/04/14 13:10:09;;;;;;;4.93;2.90;;;13.10;94.30;;;;;;4997722;28;20057;-71
2023/04/14 13:12:35;;;;;;;5.50;2.75;;;13.10;93.40;;;;;;4993105;28;20018;-71
2023/04/14 13:15:01;;;;;;;5.78;2.67;;;13.20;92.30;;;;;;4993056;28;20034;-71